AAL4357 KBOS-KDCA
Flight info
| Callsign | AAL4357 |
|---|---|
| Flight time | 1h 16m |
| Altitude | 38000 |
| Route | SSOXS7 SSOXS Q167 ZIZZI KNUKK ATR LAFLN DEALE3 |
| Aircraft | A20N/M-SDE2E3FGHIRWXY/LB1 |
Departure
| Time | 2026-05-05 22:45 |
|---|---|
| Airport | Boston Logan International Airport (KBOS) |
Arrival
| Time | 2026-05-06 00:01 |
|---|---|
| Airport | Ronald Reagan Washington National Airport (KDCA) |
| Time | Latitude | Longitude | Altitude | Speed | Heading |
|---|---|---|---|---|---|
| 2026-05-05 21:59 | 42.36466 | -71.01791 | 18 ft | 0 kts | 254° |
| 2026-05-05 22:28 | 42.36467 | -71.01790 | 18 ft | 0 kts | 254° |
| 2026-05-05 22:28 | 42.36470 | -71.01772 | 18 ft | 2 kts | 255° |
| 2026-05-05 22:29 | 42.36474 | -71.01753 | 18 ft | 2 kts | 255° |
| 2026-05-05 22:29 | 42.36478 | -71.01733 | 18 ft | 2 kts | 255° |
| 2026-05-05 22:29 | 42.36483 | -71.01714 | 18 ft | 2 kts | 255° |
| 2026-05-05 22:29 | 42.36486 | -71.01695 | 18 ft | 2 kts | 254° |
| 2026-05-05 22:30 | 42.36491 | -71.01675 | 18 ft | 1 kts | 256° |
| 2026-05-05 22:30 | 42.36493 | -71.01663 | 18 ft | 2 kts | 236° |
| 2026-05-05 22:30 | 42.36502 | -71.01653 | 18 ft | 0 kts | 204° |
| 2026-05-05 22:30 | 42.36508 | -71.01650 | 18 ft | 1 kts | 199° |
| 2026-05-05 22:31 | 42.36509 | -71.01650 | 18 ft | 0 kts | 199° |
| 2026-05-05 22:32 | 42.36503 | -71.01651 | 18 ft | 2 kts | 183° |
| 2026-05-05 22:32 | 42.36485 | -71.01643 | 18 ft | 2 kts | 152° |
| 2026-05-05 22:33 | 42.36473 | -71.01631 | 18 ft | 1 kts | 137° |
| 2026-05-05 22:33 | 42.36471 | -71.01628 | 18 ft | 2 kts | 133° |
| 2026-05-05 22:33 | 42.36427 | -71.01546 | 20 ft | 11 kts | 123° |
| 2026-05-05 22:33 | 42.36393 | -71.01461 | 21 ft | 9 kts | 98° |
| 2026-05-05 22:34 | 42.36433 | -71.01387 | 21 ft | 11 kts | 30° |
| 2026-05-05 22:34 | 42.36512 | -71.01336 | 20 ft | 13 kts | 25° |
| 2026-05-05 22:34 | 42.36608 | -71.01281 | 19 ft | 16 kts | 19° |
| 2026-05-05 22:34 | 42.36726 | -71.01245 | 18 ft | 17 kts | 359° |
| 2026-05-05 22:35 | 42.36842 | -71.01275 | 18 ft | 17 kts | 28° |
| 2026-05-05 22:35 | 42.36938 | -71.01163 | 18 ft | 18 kts | 40° |
| 2026-05-05 22:35 | 42.37049 | -71.01069 | 17 ft | 19 kts | 26° |
| 2026-05-05 22:35 | 42.37180 | -71.00980 | 14 ft | 21 kts | 27° |
| 2026-05-05 22:36 | 42.37316 | -71.00895 | 14 ft | 21 kts | 19° |
| 2026-05-05 22:36 | 42.37460 | -71.00829 | 14 ft | 21 kts | 19° |
| 2026-05-05 22:36 | 42.37546 | -71.00787 | 14 ft | 0 kts | 20° |
| 2026-05-05 22:40 | 42.37546 | -71.00786 | 14 ft | 0 kts | 20° |
| 2026-05-05 22:41 | 42.37548 | -71.00786 | 14 ft | 0 kts | 20° |
| 2026-05-05 22:42 | 42.37549 | -71.00785 | 14 ft | 0 kts | 20° |
| 2026-05-05 22:42 | 42.37552 | -71.00784 | 14 ft | 1 kts | 20° |
| 2026-05-05 22:42 | 42.37572 | -71.00773 | 14 ft | 4 kts | 21° |
| 2026-05-05 22:42 | 42.37610 | -71.00753 | 14 ft | 7 kts | 20° |
| 2026-05-05 22:43 | 42.37665 | -71.00726 | 14 ft | 9 kts | 20° |
| 2026-05-05 22:43 | 42.37734 | -71.00692 | 14 ft | 7 kts | 19° |
| 2026-05-05 22:43 | 42.37750 | -71.00684 | 14 ft | 2 kts | 20° |
| 2026-05-05 22:43 | 42.37789 | -71.00665 | 14 ft | 8 kts | 20° |
| 2026-05-05 22:44 | 42.37834 | -71.00607 | 14 ft | 10 kts | 75° |
| 2026-05-05 22:44 | 42.37816 | -71.00514 | 14 ft | 10 kts | 125° |
| 2026-05-05 22:44 | 42.37751 | -71.00493 | 14 ft | 10 kts | 195° |
| 2026-05-05 22:44 | 42.37731 | -71.00502 | 14 ft | 3 kts | 199° |
| 2026-05-05 22:45 | 42.37514 | -71.00606 | 15 ft | 71 kts | 202° |
| 2026-05-05 22:45 | 42.36825 | -71.00941 | 18 ft | 136 kts | 200° |
| 2026-05-05 22:45 | 42.35837 | -71.01395 | 367 ft | 157 kts | 198° |
| 2026-05-05 22:45 | 42.34748 | -71.01749 | 1062 ft | 166 kts | 188° |
| 2026-05-05 22:46 | 42.33678 | -71.01269 | 1998 ft | 178 kts | 153° |
| 2026-05-05 22:46 | 42.32790 | -70.99985 | 2623 ft | 202 kts | 140° |
| 2026-05-05 22:46 | 42.31914 | -70.98402 | 3208 ft | 222 kts | 137° |
| 2026-05-05 22:46 | 42.31118 | -70.96459 | 3815 ft | 257 kts | 111° |
| 2026-05-05 22:47 | 42.31139 | -70.93966 | 4667 ft | 279 kts | 85° |
| 2026-05-05 22:47 | 42.31560 | -70.91327 | 5334 ft | 299 kts | 80° |
| 2026-05-05 22:47 | 42.32062 | -70.88522 | 6035 ft | 315 kts | 80° |
| 2026-05-05 22:47 | 42.32541 | -70.85635 | 6955 ft | 321 kts | 81° |
| 2026-05-05 22:48 | 42.32984 | -70.82699 | 7960 ft | 323 kts | 82° |
| 2026-05-05 22:48 | 42.33070 | -70.79719 | 8914 ft | 321 kts | 103° |
| 2026-05-05 22:48 | 42.32422 | -70.76925 | 9854 ft | 317 kts | 118° |
| 2026-05-05 22:48 | 42.31464 | -70.74216 | 10695 ft | 323 kts | 121° |
| 2026-05-05 22:49 | 42.30432 | -70.71439 | 11235 ft | 340 kts | 122° |
| 2026-05-05 22:49 | 42.29033 | -70.68873 | 11722 ft | 348 kts | 142° |
| 2026-05-05 22:49 | 42.26984 | -70.67148 | 12179 ft | 351 kts | 164° |
| 2026-05-05 22:49 | 42.24647 | -70.66107 | 12964 ft | 355 kts | 167° |
| 2026-05-05 22:50 | 42.22306 | -70.65103 | 13800 ft | 359 kts | 167° |
| 2026-05-05 22:50 | 42.19930 | -70.64056 | 14615 ft | 363 kts | 166° |
| 2026-05-05 22:50 | 42.17527 | -70.62970 | 15408 ft | 367 kts | 166° |
| 2026-05-05 22:50 | 42.15062 | -70.62136 | 16191 ft | 364 kts | 177° |
| 2026-05-05 22:51 | 42.12558 | -70.62149 | 16948 ft | 361 kts | 191° |
| 2026-05-05 22:51 | 42.10160 | -70.62935 | 17676 ft | 360 kts | 200° |
| 2026-05-05 22:51 | 42.07765 | -70.63993 | 18382 ft | 364 kts | 201° |
| 2026-05-05 22:51 | 42.05356 | -70.65073 | 19054 ft | 368 kts | 201° |
| 2026-05-05 22:52 | 42.02915 | -70.66163 | 19759 ft | 371 kts | 201° |
| 2026-05-05 22:52 | 42.00485 | -70.67242 | 20419 ft | 375 kts | 201° |
| 2026-05-05 22:52 | 41.97964 | -70.68354 | 21033 ft | 381 kts | 201° |
| 2026-05-05 22:52 | 41.95466 | -70.69452 | 21658 ft | 384 kts | 201° |
| 2026-05-05 22:53 | 41.92894 | -70.70581 | 22247 ft | 389 kts | 201° |
| 2026-05-05 22:53 | 41.90317 | -70.71712 | 22820 ft | 394 kts | 202° |
| 2026-05-05 22:53 | 41.87722 | -70.72849 | 23379 ft | 398 kts | 202° |
| 2026-05-05 22:53 | 41.85132 | -70.74113 | 23925 ft | 400 kts | 205° |
| 2026-05-05 22:54 | 41.82561 | -70.75614 | 24467 ft | 402 kts | 209° |
| 2026-05-05 22:54 | 41.80094 | -70.77312 | 24983 ft | 404 kts | 213° |
| 2026-05-05 22:54 | 41.77631 | -70.79160 | 25487 ft | 407 kts | 213° |
| 2026-05-05 22:54 | 41.75133 | -70.81041 | 25946 ft | 411 kts | 213° |
| 2026-05-05 22:55 | 41.72667 | -70.82896 | 26372 ft | 415 kts | 213° |
| 2026-05-05 22:55 | 41.70115 | -70.84811 | 26792 ft | 420 kts | 213° |
| 2026-05-05 22:55 | 41.67585 | -70.86710 | 27220 ft | 423 kts | 213° |
| 2026-05-05 22:55 | 41.64984 | -70.88654 | 27626 ft | 427 kts | 213° |
| 2026-05-05 22:56 | 41.62410 | -70.90582 | 28018 ft | 430 kts | 213° |
| 2026-05-05 22:56 | 41.59777 | -70.92550 | 28434 ft | 433 kts | 213° |
| 2026-05-05 22:56 | 41.57277 | -70.94699 | 28801 ft | 433 kts | 220° |
| 2026-05-05 22:56 | 41.54953 | -70.97269 | 29199 ft | 433 kts | 226° |
| 2026-05-05 22:57 | 41.52897 | -71.00168 | 29640 ft | 431 kts | 233° |
| 2026-05-05 22:57 | 41.51128 | -71.03322 | 30195 ft | 426 kts | 238° |
| 2026-05-05 22:57 | 41.49485 | -71.06573 | 30919 ft | 421 kts | 239° |
| 2026-05-05 22:57 | 41.47887 | -71.09779 | 31589 ft | 417 kts | 240° |
| 2026-05-05 22:58 | 41.46278 | -71.13013 | 32109 ft | 416 kts | 240° |
| 2026-05-05 22:58 | 41.44693 | -71.16190 | 32555 ft | 416 kts | 240° |
| 2026-05-05 22:58 | 41.43095 | -71.19380 | 33000 ft | 416 kts | 240° |
| 2026-05-05 22:58 | 41.41478 | -71.22605 | 33294 ft | 419 kts | 240° |
| 2026-05-05 22:59 | 41.39870 | -71.25804 | 33602 ft | 421 kts | 240° |
| 2026-05-05 22:59 | 41.38227 | -71.29058 | 33990 ft | 421 kts | 240° |
| 2026-05-05 22:59 | 41.36616 | -71.32251 | 34439 ft | 419 kts | 240° |
| 2026-05-05 22:59 | 41.34997 | -71.35458 | 34854 ft | 417 kts | 241° |
| 2026-05-05 23:00 | 41.31799 | -71.41795 | 35635 ft | 413 kts | 240° |
| 2026-05-05 23:00 | 41.30206 | -71.44948 | 35998 ft | 410 kts | 240° |
| 2026-05-05 23:00 | 41.28617 | -71.48083 | 36306 ft | 410 kts | 240° |
| 2026-05-05 23:01 | 41.27032 | -71.51210 | 36594 ft | 409 kts | 240° |
| 2026-05-05 23:01 | 41.25449 | -71.54331 | 36967 ft | 407 kts | 240° |
| 2026-05-05 23:01 | 41.23880 | -71.57423 | 37416 ft | 404 kts | 240° |
| 2026-05-05 23:01 | 41.22307 | -71.60514 | 37811 ft | 403 kts | 240° |
| 2026-05-05 23:02 | 41.20737 | -71.63603 | 37938 ft | 403 kts | 240° |
| 2026-05-05 23:02 | 41.19179 | -71.66658 | 37948 ft | 404 kts | 239° |
| 2026-05-05 23:02 | 41.16032 | -71.72823 | 37947 ft | 404 kts | 239° |
| 2026-05-05 23:03 | 41.12896 | -71.78974 | 37955 ft | 403 kts | 239° |
| 2026-05-05 23:03 | 41.09771 | -71.85119 | 37949 ft | 403 kts | 240° |
| 2026-05-05 23:04 | 41.06660 | -71.91225 | 37949 ft | 403 kts | 240° |
| 2026-05-05 23:04 | 41.03662 | -71.97464 | 37948 ft | 400 kts | 244° |
| 2026-05-05 23:05 | 41.01161 | -72.04024 | 37946 ft | 399 kts | 248° |
| 2026-05-05 23:05 | 40.98816 | -72.10676 | 37939 ft | 399 kts | 248° |
| 2026-05-05 23:06 | 40.96483 | -72.17277 | 37937 ft | 398 kts | 248° |
| 2026-05-05 23:06 | 40.94058 | -72.23846 | 37939 ft | 400 kts | 245° |
| 2026-05-05 23:07 | 40.91134 | -72.30122 | 37937 ft | 403 kts | 239° |
| 2026-05-05 23:07 | 40.87691 | -72.35955 | 37935 ft | 406 kts | 233° |
| 2026-05-05 23:08 | 40.83764 | -72.41348 | 37942 ft | 409 kts | 230° |
| 2026-05-05 23:08 | 40.79666 | -72.46581 | 37939 ft | 411 kts | 226° |
| 2026-05-05 23:09 | 40.75263 | -72.51410 | 37943 ft | 413 kts | 224° |
| 2026-05-05 23:09 | 40.70838 | -72.56212 | 37950 ft | 413 kts | 224° |
| 2026-05-05 23:10 | 40.66456 | -72.61064 | 37684 ft | 412 kts | 226° |
| 2026-05-05 23:10 | 40.64301 | -72.63553 | 37347 ft | 413 kts | 227° |
| 2026-05-05 23:10 | 40.62161 | -72.66033 | 37018 ft | 415 kts | 226° |
| 2026-05-05 23:11 | 40.59988 | -72.68543 | 36699 ft | 418 kts | 226° |
| 2026-05-05 23:11 | 40.57807 | -72.71057 | 36456 ft | 419 kts | 226° |
| 2026-05-05 23:11 | 40.55604 | -72.73591 | 36213 ft | 420 kts | 226° |
| 2026-05-05 23:11 | 40.53403 | -72.76114 | 36013 ft | 421 kts | 226° |
| 2026-05-05 23:12 | 40.51208 | -72.78629 | 35849 ft | 421 kts | 226° |
| 2026-05-05 23:12 | 40.48992 | -72.81162 | 35689 ft | 422 kts | 226° |
| 2026-05-05 23:12 | 40.46792 | -72.83679 | 35437 ft | 424 kts | 227° |
| 2026-05-05 23:12 | 40.44568 | -72.86217 | 35208 ft | 424 kts | 226° |
| 2026-05-05 23:13 | 40.42333 | -72.88767 | 34962 ft | 427 kts | 226° |
| 2026-05-05 23:13 | 40.40086 | -72.91328 | 34728 ft | 429 kts | 227° |
| 2026-05-05 23:13 | 40.37835 | -72.93892 | 34473 ft | 430 kts | 227° |
| 2026-05-05 23:13 | 40.35601 | -72.96437 | 34199 ft | 432 kts | 226° |
| 2026-05-05 23:14 | 40.33325 | -72.99023 | 33975 ft | 432 kts | 226° |
| 2026-05-05 23:14 | 40.31060 | -73.01595 | 33970 ft | 431 kts | 226° |
| 2026-05-05 23:14 | 40.26553 | -73.06703 | 33966 ft | 431 kts | 226° |
| 2026-05-05 23:15 | 40.22006 | -73.11845 | 33964 ft | 432 kts | 227° |
| 2026-05-05 23:15 | 40.17485 | -73.16956 | 33970 ft | 432 kts | 226° |
| 2026-05-05 23:16 | 40.12961 | -73.22057 | 33968 ft | 431 kts | 226° |
| 2026-05-05 23:16 | 40.08398 | -73.27189 | 33965 ft | 431 kts | 227° |
| 2026-05-05 23:17 | 40.03888 | -73.32250 | 33966 ft | 431 kts | 226° |
| 2026-05-05 23:17 | 39.99321 | -73.37359 | 33964 ft | 431 kts | 226° |
| 2026-05-05 23:18 | 39.94797 | -73.42420 | 33971 ft | 432 kts | 226° |
| 2026-05-05 23:18 | 39.90221 | -73.47523 | 33974 ft | 432 kts | 226° |
| 2026-05-05 23:19 | 39.85682 | -73.52571 | 33973 ft | 431 kts | 226° |
| 2026-05-05 23:19 | 39.81111 | -73.57664 | 33981 ft | 433 kts | 227° |
| 2026-05-05 23:20 | 39.76557 | -73.62730 | 33977 ft | 433 kts | 227° |
| 2026-05-05 23:20 | 39.71979 | -73.67816 | 33978 ft | 433 kts | 226° |
| 2026-05-05 23:21 | 39.67415 | -73.72875 | 33975 ft | 433 kts | 226° |
| 2026-05-05 23:21 | 39.62855 | -73.77920 | 33978 ft | 432 kts | 226° |
| 2026-05-05 23:22 | 39.58287 | -73.82965 | 33976 ft | 433 kts | 226° |
| 2026-05-05 23:22 | 39.53707 | -73.88019 | 33976 ft | 432 kts | 226° |
| 2026-05-05 23:23 | 39.49148 | -73.93035 | 33978 ft | 433 kts | 226° |
| 2026-05-05 23:23 | 39.44586 | -73.98046 | 33974 ft | 431 kts | 226° |
| 2026-05-05 23:24 | 39.39991 | -74.03085 | 33974 ft | 432 kts | 226° |
| 2026-05-05 23:24 | 39.35420 | -74.08082 | 33971 ft | 432 kts | 226° |
| 2026-05-05 23:25 | 39.30845 | -74.13074 | 33971 ft | 432 kts | 226° |
| 2026-05-05 23:25 | 39.26283 | -74.18046 | 33971 ft | 430 kts | 226° |
| 2026-05-05 23:26 | 39.21727 | -74.22999 | 33971 ft | 430 kts | 226° |
| 2026-05-05 23:26 | 39.17139 | -74.27983 | 33973 ft | 431 kts | 226° |
| 2026-05-05 23:27 | 39.12580 | -74.32923 | 33972 ft | 430 kts | 226° |
| 2026-05-05 23:27 | 39.07988 | -74.37892 | 33980 ft | 432 kts | 226° |
| 2026-05-05 23:28 | 39.03413 | -74.42834 | 33978 ft | 432 kts | 226° |
| 2026-05-05 23:28 | 38.98977 | -74.47926 | 33964 ft | 425 kts | 233° |
| 2026-05-05 23:29 | 38.95399 | -74.53829 | 33972 ft | 416 kts | 244° |
| 2026-05-05 23:29 | 38.93086 | -74.60461 | 33680 ft | 404 kts | 259° |
| 2026-05-05 23:30 | 38.92483 | -74.63973 | 33393 ft | 398 kts | 265° |
| 2026-05-05 23:30 | 38.92070 | -74.67453 | 33121 ft | 396 kts | 265° |
| 2026-05-05 23:30 | 38.91682 | -74.70898 | 32843 ft | 394 kts | 265° |
| 2026-05-05 23:30 | 38.91292 | -74.74373 | 32568 ft | 393 kts | 265° |
| 2026-05-05 23:31 | 38.90900 | -74.77843 | 32099 ft | 394 kts | 265° |
| 2026-05-05 23:31 | 38.90505 | -74.81320 | 31504 ft | 391 kts | 265° |
| 2026-05-05 23:31 | 38.90112 | -74.84746 | 30972 ft | 388 kts | 264° |
| 2026-05-05 23:31 | 38.89723 | -74.88142 | 30388 ft | 386 kts | 264° |
| 2026-05-05 23:32 | 38.89334 | -74.91505 | 29797 ft | 384 kts | 264° |
| 2026-05-05 23:32 | 38.88942 | -74.94891 | 29231 ft | 382 kts | 264° |
| 2026-05-05 23:32 | 38.88554 | -74.98225 | 28710 ft | 378 kts | 263° |
| 2026-05-05 23:32 | 38.88170 | -75.01515 | 28207 ft | 375 kts | 263° |
| 2026-05-05 23:33 | 38.87787 | -75.04796 | 27635 ft | 373 kts | 263° |
| 2026-05-05 23:33 | 38.87407 | -75.08041 | 27202 ft | 368 kts | 263° |
| 2026-05-05 23:33 | 38.87026 | -75.11263 | 26718 ft | 364 kts | 263° |
| 2026-05-05 23:33 | 38.86651 | -75.14452 | 26219 ft | 361 kts | 262° |
| 2026-05-05 23:34 | 38.86277 | -75.17620 | 25739 ft | 358 kts | 262° |
| 2026-05-05 23:34 | 38.85908 | -75.20744 | 25263 ft | 355 kts | 262° |
| 2026-05-05 23:34 | 38.85537 | -75.23856 | 24810 ft | 351 kts | 262° |
| 2026-05-05 23:34 | 38.85173 | -75.26914 | 24332 ft | 349 kts | 261° |
| 2026-05-05 23:35 | 38.84809 | -75.29972 | 23890 ft | 345 kts | 261° |
| 2026-05-05 23:35 | 38.84448 | -75.32999 | 23428 ft | 342 kts | 261° |
| 2026-05-05 23:35 | 38.84087 | -75.36006 | 22891 ft | 342 kts | 261° |
| 2026-05-05 23:35 | 38.83730 | -75.38979 | 22472 ft | 338 kts | 261° |
| 2026-05-05 23:36 | 38.83370 | -75.41956 | 22029 ft | 336 kts | 260° |
| 2026-05-05 23:36 | 38.83019 | -75.44862 | 21574 ft | 334 kts | 260° |
| 2026-05-05 23:36 | 38.82662 | -75.47816 | 21154 ft | 332 kts | 260° |
| 2026-05-05 23:36 | 38.82312 | -75.50695 | 20698 ft | 330 kts | 260° |
| 2026-05-05 23:37 | 38.81961 | -75.53590 | 20208 ft | 328 kts | 260° |
| 2026-05-05 23:37 | 38.81609 | -75.56484 | 19709 ft | 327 kts | 260° |
| 2026-05-05 23:37 | 38.81264 | -75.59319 | 19257 ft | 324 kts | 259° |
| 2026-05-05 23:37 | 38.80917 | -75.62160 | 18784 ft | 322 kts | 259° |
| 2026-05-05 23:38 | 38.80576 | -75.64952 | 18263 ft | 322 kts | 259° |
| 2026-05-05 23:38 | 38.80226 | -75.67788 | 17844 ft | 319 kts | 259° |
| 2026-05-05 23:38 | 38.79884 | -75.70563 | 17416 ft | 317 kts | 259° |
| 2026-05-05 23:38 | 38.79541 | -75.73341 | 16960 ft | 314 kts | 259° |
| 2026-05-05 23:39 | 38.79205 | -75.76076 | 16530 ft | 310 kts | 259° |
| 2026-05-05 23:39 | 38.78870 | -75.78778 | 16116 ft | 307 kts | 259° |
| 2026-05-05 23:39 | 38.78538 | -75.81465 | 15678 ft | 304 kts | 259° |
| 2026-05-05 23:39 | 38.78209 | -75.84105 | 15225 ft | 302 kts | 259° |
| 2026-05-05 23:40 | 38.77877 | -75.86769 | 14776 ft | 299 kts | 260° |
| 2026-05-05 23:40 | 38.77553 | -75.89375 | 14350 ft | 296 kts | 260° |
| 2026-05-05 23:40 | 38.77232 | -75.91949 | 13884 ft | 294 kts | 260° |
| 2026-05-05 23:40 | 38.76909 | -75.94524 | 13461 ft | 291 kts | 260° |
| 2026-05-05 23:41 | 38.76593 | -75.97048 | 13040 ft | 289 kts | 260° |
| 2026-05-05 23:41 | 38.76276 | -75.99585 | 12608 ft | 287 kts | 260° |
| 2026-05-05 23:41 | 38.75970 | -76.02025 | 12187 ft | 286 kts | 259° |
| 2026-05-05 23:41 | 38.75697 | -76.04539 | 11776 ft | 284 kts | 263° |
| 2026-05-05 23:42 | 38.75627 | -76.07041 | 11393 ft | 281 kts | 268° |
| 2026-05-05 23:42 | 38.75740 | -76.09506 | 11083 ft | 279 kts | 273° |
| 2026-05-05 23:42 | 38.75966 | -76.11980 | 11052 ft | 281 kts | 274° |
| 2026-05-05 23:42 | 38.76201 | -76.14483 | 11040 ft | 281 kts | 274° |
| 2026-05-05 23:43 | 38.76434 | -76.16950 | 11040 ft | 280 kts | 274° |
| 2026-05-05 23:43 | 38.76669 | -76.19437 | 11042 ft | 281 kts | 274° |
| 2026-05-05 23:43 | 38.76900 | -76.21897 | 11047 ft | 281 kts | 274° |
| 2026-05-05 23:43 | 38.77130 | -76.24378 | 11061 ft | 280 kts | 274° |
| 2026-05-05 23:44 | 38.77360 | -76.26836 | 11056 ft | 280 kts | 274° |
| 2026-05-05 23:44 | 38.77589 | -76.29318 | 11049 ft | 280 kts | 274° |
| 2026-05-05 23:44 | 38.77818 | -76.31795 | 11053 ft | 280 kts | 274° |
| 2026-05-05 23:44 | 38.78046 | -76.34264 | 11039 ft | 281 kts | 274° |
| 2026-05-05 23:45 | 38.78276 | -76.36752 | 11061 ft | 281 kts | 274° |
| 2026-05-05 23:45 | 38.78504 | -76.39238 | 11063 ft | 281 kts | 274° |
| 2026-05-05 23:45 | 38.78733 | -76.41724 | 11053 ft | 282 kts | 274° |
| 2026-05-05 23:45 | 38.78961 | -76.44218 | 11045 ft | 282 kts | 274° |
| 2026-05-05 23:46 | 38.79188 | -76.46705 | 11041 ft | 281 kts | 274° |
| 2026-05-05 23:46 | 38.79416 | -76.49213 | 11040 ft | 282 kts | 274° |
| 2026-05-05 23:46 | 38.79643 | -76.51705 | 11040 ft | 282 kts | 274° |
| 2026-05-05 23:46 | 38.79815 | -76.54186 | 11035 ft | 282 kts | 271° |
| 2026-05-05 23:47 | 38.79906 | -76.56698 | 11028 ft | 282 kts | 271° |
| 2026-05-05 23:47 | 38.79993 | -76.59209 | 11020 ft | 282 kts | 271° |
| 2026-05-05 23:47 | 38.80078 | -76.61696 | 11036 ft | 282 kts | 270° |
| 2026-05-05 23:47 | 38.80163 | -76.64230 | 11026 ft | 284 kts | 270° |
| 2026-05-05 23:48 | 38.80246 | -76.66755 | 11027 ft | 283 kts | 270° |
| 2026-05-05 23:48 | 38.80329 | -76.69267 | 11005 ft | 282 kts | 270° |
| 2026-05-05 23:48 | 38.80412 | -76.71770 | 10954 ft | 282 kts | 270° |
| 2026-05-05 23:48 | 38.80492 | -76.74206 | 10986 ft | 265 kts | 270° |
| 2026-05-05 23:49 | 38.80658 | -76.76494 | 11006 ft | 259 kts | 279° |
| 2026-05-05 23:49 | 38.81240 | -76.78715 | 11019 ft | 272 kts | 292° |
| 2026-05-05 23:49 | 38.82242 | -76.80760 | 10938 ft | 271 kts | 302° |
| 2026-05-05 23:49 | 38.83389 | -76.82630 | 10599 ft | 262 kts | 303° |
| 2026-05-05 23:50 | 38.84514 | -76.84417 | 10209 ft | 251 kts | 303° |
| 2026-05-05 23:50 | 38.85569 | -76.86088 | 10041 ft | 232 kts | 303° |
| 2026-05-05 23:50 | 38.86560 | -76.87676 | 9523 ft | 232 kts | 303° |
| 2026-05-05 23:50 | 38.87583 | -76.89281 | 9032 ft | 231 kts | 305° |
| 2026-05-05 23:51 | 38.88676 | -76.90791 | 8425 ft | 235 kts | 308° |
| 2026-05-05 23:51 | 38.89822 | -76.92255 | 7983 ft | 229 kts | 308° |
| 2026-05-05 23:51 | 38.90943 | -76.93685 | 7475 ft | 228 kts | 308° |
| 2026-05-05 23:51 | 38.92056 | -76.95106 | 6930 ft | 228 kts | 307° |
| 2026-05-05 23:52 | 38.93179 | -76.96540 | 6403 ft | 227 kts | 307° |
| 2026-05-05 23:52 | 38.94291 | -76.97965 | 6079 ft | 226 kts | 307° |
| 2026-05-05 23:52 | 38.95411 | -76.99406 | 6034 ft | 229 kts | 307° |
| 2026-05-05 23:52 | 38.96540 | -77.00854 | 6027 ft | 229 kts | 307° |
| 2026-05-05 23:53 | 38.97665 | -77.02299 | 6027 ft | 230 kts | 307° |
| 2026-05-05 23:53 | 38.98795 | -77.03749 | 6003 ft | 228 kts | 307° |
| 2026-05-05 23:53 | 38.99908 | -77.05173 | 5751 ft | 226 kts | 307° |
| 2026-05-05 23:53 | 39.01024 | -77.06606 | 5400 ft | 228 kts | 307° |
| 2026-05-05 23:54 | 39.02134 | -77.08030 | 5193 ft | 223 kts | 307° |
| 2026-05-05 23:54 | 39.03228 | -77.09430 | 4905 ft | 223 kts | 307° |
| 2026-05-05 23:54 | 39.04343 | -77.10813 | 4506 ft | 229 kts | 309° |
| 2026-05-05 23:54 | 39.05538 | -77.12215 | 4104 ft | 234 kts | 310° |
| 2026-05-05 23:55 | 39.06732 | -77.13623 | 3707 ft | 237 kts | 309° |
| 2026-05-05 23:55 | 39.07866 | -77.15173 | 3289 ft | 232 kts | 292° |
| 2026-05-05 23:55 | 39.08257 | -77.17060 | 3024 ft | 209 kts | 258° |
| 2026-05-05 23:55 | 39.07762 | -77.18653 | 3002 ft | 184 kts | 224° |
| 2026-05-05 23:56 | 39.06704 | -77.19366 | 2990 ft | 171 kts | 187° |
| 2026-05-05 23:56 | 39.05531 | -77.19165 | 3015 ft | 172 kts | 173° |
| 2026-05-05 23:56 | 39.04391 | -77.18729 | 3016 ft | 171 kts | 170° |
| 2026-05-05 23:56 | 39.03259 | -77.18262 | 3017 ft | 172 kts | 169° |
| 2026-05-05 23:57 | 39.02106 | -77.17790 | 3020 ft | 171 kts | 169° |
| 2026-05-05 23:57 | 39.00983 | -77.17287 | 3023 ft | 172 kts | 168° |
| 2026-05-05 23:57 | 38.99844 | -77.16779 | 3039 ft | 172 kts | 169° |
| 2026-05-05 23:57 | 38.98715 | -77.16289 | 2935 ft | 173 kts | 169° |
| 2026-05-05 23:58 | 38.97584 | -77.15796 | 2792 ft | 171 kts | 168° |
| 2026-05-05 23:58 | 38.96468 | -77.15186 | 2557 ft | 177 kts | 158° |
| 2026-05-05 23:58 | 38.95475 | -77.14222 | 2317 ft | 180 kts | 148° |
| 2026-05-05 23:58 | 38.94546 | -77.13186 | 2103 ft | 170 kts | 148° |
| 2026-05-05 23:59 | 38.93706 | -77.12230 | 1835 ft | 153 kts | 149° |
| 2026-05-05 23:59 | 38.92892 | -77.11453 | 1591 ft | 148 kts | 156° |
| 2026-05-05 23:59 | 38.91957 | -77.10699 | 1381 ft | 167 kts | 156° |
| 2026-05-05 23:59 | 38.90990 | -77.09822 | 1154 ft | 175 kts | 143° |
| 2026-05-06 00:00 | 38.90373 | -77.08437 | 808 ft | 185 kts | 118° |
| 2026-05-06 00:00 | 38.89940 | -77.06894 | 545 ft | 184 kts | 118° |
| 2026-05-06 00:00 | 38.89225 | -77.05637 | 641 ft | 169 kts | 144° |
| 2026-05-06 00:00 | 38.88344 | -77.04668 | 409 ft | 163 kts | 146° |
| 2026-05-06 00:01 | 38.87426 | -77.04050 | 258 ft | 142 kts | 169° |
| 2026-05-06 00:01 | 38.86407 | -77.03899 | 93 ft | 150 kts | 179° |
| 2026-05-06 00:01 | 38.85403 | -77.03814 | 25 ft | 132 kts | 176° |
| 2026-05-06 00:01 | 38.84807 | -77.03757 | 22 ft | 47 kts | 176° |
| 2026-05-06 00:02 | 38.84626 | -77.03818 | 22 ft | 22 kts | 206° |
| 2026-05-06 00:02 | 38.84491 | -77.03905 | 21 ft | 19 kts | 206° |
| 2026-05-06 00:02 | 38.84391 | -77.04005 | 21 ft | 17 kts | 240° |
| 2026-05-06 00:02 | 38.84428 | -77.04118 | 21 ft | 16 kts | 349° |
| 2026-05-06 00:03 | 38.84529 | -77.04098 | 24 ft | 14 kts | 48° |
| 2026-05-06 00:03 | 38.84604 | -77.04018 | 23 ft | 15 kts | 5° |
| 2026-05-06 00:03 | 38.84709 | -77.03987 | 24 ft | 15 kts | 25° |
| 2026-05-06 00:03 | 38.84813 | -77.03951 | 25 ft | 15 kts | 2° |
| 2026-05-06 00:04 | 38.84922 | -77.03965 | 25 ft | 15 kts | 356° |
| 2026-05-06 00:04 | 38.85035 | -77.03973 | 26 ft | 16 kts | 358° |
| 2026-05-06 00:04 | 38.85150 | -77.03979 | 26 ft | 16 kts | 357° |
| 2026-05-06 00:04 | 38.85246 | -77.03986 | 26 ft | 12 kts | 356° |
| 2026-05-06 00:05 | 38.85425 | -77.04004 | 26 ft | 8 kts | 354° |
| 2026-05-06 00:05 | 38.85488 | -77.04012 | 26 ft | 9 kts | 354° |
| 2026-05-06 00:05 | 38.85560 | -77.04032 | 26 ft | 12 kts | 340° |
| 2026-05-06 00:06 | 38.85599 | -77.04107 | 26 ft | 9 kts | 289° |
| 2026-05-06 00:06 | 38.85601 | -77.04115 | 26 ft | 0 kts | 289° |
| 2026-05-06 00:06 | 38.85602 | -77.04115 | 26 ft | 0 kts | 289° |